createdAt,value
2024-05-09T00:01:57.382Z,100479.23
2024-05-09T00:04:29.057Z,100481.75
2024-05-09T00:07:00.826Z,100483.63
2024-05-09T00:09:32.215Z,100486.65
2024-05-09T00:12:03.882Z,100484.69
2024-05-09T00:14:35.678Z,100486.48
2024-05-09T00:17:07.757Z,100485.92
2024-05-09T00:19:39.448Z,100485.02
2024-05-09T00:22:11.301Z,100481.54
2024-05-09T00:24:42.952Z,100484.84
2024-05-09T00:27:14.625Z,100478.38
2024-05-09T00:29:45.926Z,100475.70
2024-05-09T00:32:17.632Z,100479.01
2024-05-09T00:34:49.255Z,100480.05
2024-05-09T00:37:21.832Z,100482.36
2024-05-09T00:39:53.510Z,100486.40
2024-05-09T00:42:24.992Z,100485.60
2024-05-09T00:44:56.484Z,100489.23
2024-05-09T00:47:28.164Z,100492.83
2024-05-09T00:50:00.472Z,100485.70
2024-05-09T00:52:32.577Z,100489.11
2024-05-09T00:55:04.359Z,100492.07
2024-05-09T00:57:36.066Z,100496.41
2024-05-09T01:00:22.315Z,100495.61
2024-05-09T01:03:01.522Z,100497.54
2024-05-09T01:05:34.319Z,100495.02
2024-05-09T01:08:07.633Z,100500.73
2024-05-09T01:10:41.753Z,100498.32
2024-05-09T01:13:15.624Z,100499.27
2024-05-09T01:15:47.972Z,100503.98
2024-05-09T01:18:20.033Z,100505.63
2024-05-09T01:20:52.036Z,100507.05
2024-05-09T01:23:23.606Z,100508.17
2024-05-09T01:25:55.354Z,100504.65
2024-05-09T01:28:26.863Z,100508.56
2024-05-09T01:30:58.419Z,100513.77
2024-05-09T01:33:30.160Z,100513.42
2024-05-09T01:36:01.868Z,100516.59
2024-05-09T01:38:33.523Z,100521.55
2024-05-09T01:41:05.433Z,100521.34
2024-05-09T01:43:36.993Z,100517.89
2024-05-09T01:46:13.031Z,100517.69
2024-05-09T01:48:44.972Z,100518.48
2024-05-09T01:51:16.691Z,100519.05
2024-05-09T01:53:48.564Z,100523.00
2024-05-09T01:56:20.131Z,100520.27
2024-05-09T01:58:51.856Z,100520.44
2024-05-09T02:01:23.441Z,100519.36
2024-05-09T02:03:55.301Z,100520.89
2024-05-09T02:06:26.940Z,100521.91
2024-05-09T02:08:58.375Z,100520.96
2024-05-09T02:11:29.971Z,100523.46
2024-05-09T02:14:01.701Z,100518.78
2024-05-09T02:16:33.193Z,100515.92
2024-05-09T02:19:04.929Z,100515.80
2024-05-09T02:21:36.911Z,100514.93
2024-05-09T02:24:08.787Z,100510.50
2024-05-09T02:26:40.424Z,100509.77
2024-05-09T02:29:12.079Z,100509.48
2024-05-09T02:31:43.677Z,100508.31
2024-05-09T02:34:15.524Z,100513.61
2024-05-09T02:36:47.236Z,100510.35
2024-05-09T02:39:18.704Z,100510.48
2024-05-09T02:41:50.281Z,100512.88
2024-05-09T02:44:21.980Z,100518.44
2024-05-09T02:46:53.521Z,100520.02
2024-05-09T02:49:25.048Z,100523.83
2024-05-09T02:51:56.722Z,100528.17
2024-05-09T02:54:28.289Z,100532.34
2024-05-09T02:56:59.945Z,100532.42
2024-05-09T02:59:31.492Z,100534.34
2024-05-09T03:02:03.062Z,100529.64
2024-05-09T03:04:34.953Z,100534.06
2024-05-09T03:07:07.043Z,100531.54
2024-05-09T03:09:38.609Z,100531.91
2024-05-09T03:12:10.603Z,100534.27
2024-05-09T03:14:42.183Z,100532.73
2024-05-09T03:17:14.027Z,100528.55
2024-05-09T03:19:45.803Z,100526.93
2024-05-09T03:22:17.568Z,100527.19
2024-05-09T03:24:49.172Z,100531.81
2024-05-09T03:27:20.761Z,100531.17
2024-05-09T03:29:52.195Z,100531.61
2024-05-09T03:32:23.831Z,100535.55
2024-05-09T03:34:55.352Z,100538.98
2024-05-09T03:37:27.066Z,100541.61
2024-05-09T03:39:58.632Z,100545.58
2024-05-09T03:42:30.134Z,100548.38
2024-05-09T03:45:01.618Z,100549.04
2024-05-09T03:47:35.348Z,100549.21
2024-05-09T03:50:15.143Z,100552.80
2024-05-09T03:52:50.348Z,100550.61
2024-05-09T03:55:21.937Z,100554.11
2024-05-09T03:57:53.549Z,100552.41
2024-05-09T04:00:31.217Z,100553.59
2024-05-09T04:03:11.797Z,100556.51
2024-05-09T04:05:45.023Z,100556.79
2024-05-09T04:08:17.922Z,100555.23
2024-05-09T04:10:49.395Z,100560.07
2024-05-09T04:13:20.892Z,100557.73
2024-05-09T04:15:52.241Z,100560.83
2024-05-09T04:18:23.770Z,100563.98
2024-05-09T04:20:56.500Z,100571.41
2024-05-09T04:23:28.111Z,100576.00
2024-05-09T04:26:04.140Z,100575.45
2024-05-09T04:28:35.737Z,100578.35
2024-05-09T04:31:07.431Z,100575.05
2024-05-09T04:33:39.175Z,100569.01
2024-05-09T04:36:11.172Z,100570.73
2024-05-09T04:38:42.625Z,100572.12
2024-05-09T04:41:14.283Z,100574.50
2024-05-09T04:43:45.749Z,100576.17
2024-05-09T04:46:17.126Z,100577.90
2024-05-09T04:48:48.778Z,100579.46
2024-05-09T04:51:20.530Z,100577.66
2024-05-09T04:53:52.255Z,100581.59
2024-05-09T04:56:24.001Z,100579.85
2024-05-09T04:58:55.674Z,100582.02
2024-05-09T05:01:27.471Z,100581.68
2024-05-09T05:03:59.500Z,100585.52
2024-05-09T05:06:31.185Z,100589.69
2024-05-09T05:09:02.830Z,100590.73
2024-05-09T05:11:34.448Z,100592.00
2024-05-09T05:14:06.006Z,100594.13
2024-05-09T05:16:38.086Z,100593.19
2024-05-09T05:19:12.031Z,100591.39
2024-05-09T05:21:45.030Z,100593.32
2024-05-09T05:24:16.551Z,100591.77
2024-05-09T05:26:48.158Z,100591.70
2024-05-09T05:29:20.995Z,100591.63
2024-05-09T05:31:53.030Z,100596.96
2024-05-09T05:34:24.747Z,100600.73
2024-05-09T05:36:56.212Z,100601.64
2024-05-09T05:39:28.043Z,100600.23
2024-05-09T05:41:59.595Z,100599.41
2024-05-09T05:44:31.209Z,100598.02
2024-05-09T05:47:02.879Z,100601.83
2024-05-09T05:49:34.636Z,100600.50
2024-05-09T05:52:06.883Z,100598.95
2024-05-09T05:54:38.522Z,100596.75
2024-05-09T05:57:10.112Z,100599.27
2024-05-09T05:59:41.685Z,100597.14
2024-05-09T06:02:13.827Z,100596.61
2024-05-09T06:04:45.914Z,100593.63
2024-05-09T06:07:17.479Z,100596.45
2024-05-09T06:09:50.584Z,100596.84
2024-05-09T06:12:22.299Z,100601.27
2024-05-09T06:14:54.091Z,100602.58
2024-05-09T06:17:25.919Z,100601.55
2024-05-09T06:19:57.881Z,100602.55
2024-05-09T06:22:29.608Z,100599.92
2024-05-09T06:25:01.155Z,100607.30
2024-05-09T06:27:32.853Z,100606.42
2024-05-09T06:30:05.159Z,100607.45
2024-05-09T06:32:37.090Z,100607.95
2024-05-09T06:35:09.718Z,100603.63
2024-05-09T06:37:41.687Z,100602.16
2024-05-09T06:40:17.449Z,100595.41
2024-05-09T06:42:50.359Z,100595.17
2024-05-09T06:45:22.097Z,100592.44
2024-05-09T06:47:53.735Z,100593.82
2024-05-09T06:50:28.534Z,100593.10
2024-05-09T06:53:07.664Z,100591.25
2024-05-09T06:55:39.353Z,100589.73
2024-05-09T06:58:11.362Z,100584.86
2024-05-09T07:00:43.014Z,100585.67
2024-05-09T07:03:18.415Z,100585.09
2024-05-09T07:05:51.131Z,100586.79
2024-05-09T07:08:22.688Z,100589.64
2024-05-09T07:10:54.797Z,100587.94
2024-05-09T07:13:26.318Z,100589.30
2024-05-09T07:15:57.951Z,100582.88
2024-05-09T07:18:29.788Z,100585.05
2024-05-09T07:21:01.812Z,100582.50
2024-05-09T07:23:33.642Z,100582.47
2024-05-09T07:26:05.694Z,100584.54
2024-05-09T07:28:37.183Z,100581.11
2024-05-09T07:31:09.570Z,100576.19
2024-05-09T07:33:41.155Z,100577.80
2024-05-09T07:36:12.920Z,100577.42
2024-05-09T07:38:44.489Z,100578.30
2024-05-09T07:41:16.621Z,100577.21
2024-05-09T07:43:48.771Z,100578.02
2024-05-09T07:50:35.417Z,100581.89
2024-05-09T07:53:17.306Z,100581.14
2024-05-09T07:54:38.619Z,100578.96
2024-05-09T07:57:10.287Z,100575.27
2024-05-09T07:59:41.853Z,100569.69
2024-05-09T08:02:13.670Z,100565.00
2024-05-09T08:04:45.572Z,100563.03
2024-05-09T08:07:17.739Z,100564.51
2024-05-09T08:09:49.275Z,100561.59
2024-05-09T08:12:20.847Z,100561.62
2024-05-09T08:14:53.101Z,100563.58
2024-05-09T08:17:24.864Z,100564.61
2024-05-09T08:19:56.948Z,100559.58
2024-05-09T08:22:32.075Z,100564.63
2024-05-09T08:25:03.642Z,100562.42
2024-05-09T08:27:36.779Z,100562.10
2024-05-09T08:30:18.446Z,100561.77
2024-05-09T08:32:53.432Z,100564.39
2024-05-09T08:35:25.212Z,100569.10
2024-05-09T08:37:57.151Z,100566.13
2024-05-09T08:40:34.439Z,100567.52
2024-05-09T08:43:12.030Z,100563.67
2024-05-09T08:45:46.016Z,100565.77
2024-05-09T08:48:19.068Z,100563.98
2024-05-09T08:50:54.096Z,100565.84
2024-05-09T08:53:27.425Z,100561.60
2024-05-09T08:56:02.169Z,100561.20
2024-05-09T08:58:37.399Z,100564.10
2024-05-09T09:01:09.856Z,100567.38
2024-05-09T09:03:43.431Z,100565.78
2024-05-09T09:06:18.188Z,100565.55
2024-05-09T09:08:50.078Z,100567.75
2024-05-09T09:11:22.017Z,100562.96
2024-05-09T09:13:53.632Z,100563.98
2024-05-09T09:16:35.524Z,100564.08
2024-05-09T09:19:07.920Z,100559.71
2024-05-09T09:21:39.823Z,100554.77
2024-05-09T09:24:11.630Z,100558.08
2024-05-09T09:26:45.460Z,100549.19
2024-05-09T09:29:21.663Z,100547.66
2024-05-09T09:32:03.795Z,100544.23
2024-05-09T09:34:36.470Z,100549.70
2024-05-09T09:37:09.901Z,100547.25
2024-05-09T09:39:48.930Z,100549.61
2024-05-09T09:42:23.413Z,100543.73
2024-05-09T09:45:04.231Z,100547.11
2024-05-09T09:47:39.824Z,100543.66
2024-05-09T09:50:16.870Z,100542.77
2024-05-09T09:52:53.196Z,100546.08
2024-05-09T09:55:26.749Z,100538.09
2024-05-09T09:57:58.412Z,100539.52
2024-05-09T10:00:33.523Z,100538.86
2024-05-09T10:03:06.717Z,100540.30
2024-05-09T10:05:41.195Z,100538.59
2024-05-09T10:08:16.444Z,100539.42
2024-05-09T10:10:49.858Z,100535.80
2024-05-09T10:13:21.862Z,100538.53
2024-05-09T10:15:55.528Z,100533.55
2024-05-09T10:18:38.820Z,100530.15
2024-05-09T10:21:20.588Z,100527.63
2024-05-09T10:24:03.982Z,100527.23
2024-05-09T10:26:37.130Z,100523.73
2024-05-09T10:29:15.770Z,100520.63
2024-05-09T10:31:48.477Z,100521.13
2024-05-09T10:34:21.918Z,100515.91
2024-05-09T10:37:02.803Z,100513.81
2024-05-09T10:39:40.008Z,100507.70
2024-05-09T10:42:13.541Z,100499.80
2024-05-09T10:44:44.938Z,100500.21
2024-05-09T10:47:16.728Z,100499.98
2024-05-09T10:49:48.869Z,100496.35
2024-05-09T10:52:24.184Z,100496.42
2024-05-09T10:54:56.637Z,100498.13
2024-05-09T10:57:38.619Z,100492.96
2024-05-09T11:00:19.055Z,100492.58
2024-05-09T11:02:56.683Z,100486.60
2024-05-09T11:05:30.258Z,100482.51
2024-05-09T11:08:02.000Z,100479.36
2024-05-09T11:10:34.580Z,100482.08
2024-05-09T11:13:06.729Z,100479.30
2024-05-09T11:15:42.251Z,100479.16
2024-05-09T11:18:25.885Z,100476.55
2024-05-09T11:20:59.242Z,100476.65
2024-05-09T11:23:31.405Z,100472.10
2024-05-09T11:26:03.010Z,100471.06
2024-05-09T11:28:34.686Z,100471.90
2024-05-09T11:31:10.853Z,100469.53
2024-05-09T11:33:44.652Z,100466.45
2024-05-09T11:36:17.154Z,100466.59
2024-05-09T11:38:48.635Z,100460.55
2024-05-09T11:41:20.864Z,100461.08
2024-05-09T11:43:52.396Z,100457.59
2024-05-09T11:46:24.023Z,100460.84
2024-05-09T11:48:55.719Z,100457.68
2024-05-09T11:51:27.864Z,100456.35
2024-05-09T11:53:59.327Z,100457.21
2024-05-09T11:56:31.170Z,100460.25
2024-05-09T11:59:02.893Z,100460.50
2024-05-09T12:01:34.670Z,100459.24
2024-05-09T12:04:07.183Z,100456.44
2024-05-09T12:06:39.253Z,100452.01
2024-05-09T12:09:11.040Z,100447.87
2024-05-09T12:11:42.740Z,100446.90
2024-05-09T12:14:14.332Z,100444.04
2024-05-09T12:16:46.453Z,100440.49
2024-05-09T12:19:18.572Z,100435.90
2024-05-09T12:21:50.427Z,100432.30
2024-05-09T12:24:23.796Z,100430.18
2024-05-09T12:26:55.295Z,100429.28
2024-05-09T12:29:27.877Z,100429.19
2024-05-09T12:31:59.645Z,100426.91
2024-05-09T12:34:31.355Z,100424.14
2024-05-09T12:37:02.861Z,100423.94
2024-05-09T12:39:34.406Z,100421.74
2024-05-09T12:42:06.462Z,100415.66
2024-05-09T12:44:37.823Z,100416.83
2024-05-09T12:47:09.811Z,100415.35
2024-05-09T12:49:41.431Z,100411.58
2024-05-09T12:52:13.062Z,100399.73
2024-05-09T12:54:45.384Z,100394.14
2024-05-09T12:57:17.957Z,100388.46
2024-05-09T12:59:51.638Z,100390.45
2024-05-09T13:02:23.349Z,100388.12
2024-05-09T13:04:56.885Z,100389.09
2024-05-09T13:07:28.730Z,100397.08
2024-05-09T13:10:00.331Z,100395.63
2024-05-09T13:12:33.207Z,100390.75
2024-05-09T13:15:05.208Z,100389.19
2024-05-09T13:17:36.957Z,100390.90
2024-05-09T13:20:18.684Z,100387.02
2024-05-09T13:22:57.413Z,100382.80
2024-05-09T13:25:29.038Z,100381.07
2024-05-09T13:28:00.969Z,100382.15
2024-05-09T13:30:40.068Z,100379.77
2024-05-09T13:33:14.578Z,100380.13
2024-05-09T13:35:49.752Z,100374.08
2024-05-09T13:38:22.813Z,100371.65
2024-05-09T13:40:54.626Z,100372.80
2024-05-09T13:43:26.542Z,100369.33
2024-05-09T13:45:58.432Z,100371.64
2024-05-09T13:48:30.784Z,100367.56
2024-05-09T13:51:02.449Z,100364.96
2024-05-09T13:53:33.894Z,100364.92
2024-05-09T13:56:05.877Z,100358.61
2024-05-09T13:58:37.487Z,100353.91
2024-05-09T14:01:09.151Z,100354.98
2024-05-09T14:03:40.919Z,100352.20
2024-05-09T14:06:13.275Z,100347.52
2024-05-09T14:08:45.265Z,100343.22
2024-05-09T14:11:16.731Z,100338.63
2024-05-09T14:13:48.377Z,100339.66
2024-05-09T14:16:20.102Z,100337.56
2024-05-09T14:18:51.999Z,100337.11
2024-05-09T14:21:23.788Z,100337.54
2024-05-09T14:23:55.380Z,100331.45
2024-05-09T14:26:27.007Z,100332.73
2024-05-09T14:28:58.589Z,100329.33
2024-05-09T14:31:30.290Z,100334.70
2024-05-09T14:34:02.333Z,100333.34
2024-05-09T14:36:34.174Z,100335.31
2024-05-09T14:39:05.799Z,100336.32
2024-05-09T14:41:38.933Z,100330.16
2024-05-09T14:44:12.579Z,100328.35
2024-05-09T14:46:45.253Z,100325.71
2024-05-09T14:49:16.906Z,100329.06
2024-05-09T14:51:49.366Z,100326.80
2024-05-09T14:54:21.133Z,100327.21
2024-05-09T14:56:54.672Z,100325.52
2024-05-09T14:59:26.263Z,100322.64
2024-05-09T15:01:57.856Z,100322.80
2024-05-09T15:04:29.822Z,100320.34
2024-05-09T15:07:02.790Z,100318.39
2024-05-09T15:09:38.085Z,100312.16
2024-05-09T15:12:10.062Z,100314.02
2024-05-09T15:14:41.554Z,100315.20
2024-05-09T15:17:13.077Z,100312.48
2024-05-09T15:19:47.215Z,100309.31
2024-05-09T15:22:19.293Z,100302.36
2024-05-09T15:24:50.873Z,100296.89
2024-05-09T15:27:22.512Z,100298.15
2024-05-09T15:29:54.027Z,100298.77
2024-05-09T15:32:29.435Z,100293.50
2024-05-09T15:35:01.190Z,100290.66
2024-05-09T15:37:32.673Z,100292.23
2024-05-09T15:40:07.431Z,100289.17
2024-05-09T15:42:43.057Z,100286.48
2024-05-09T15:45:14.823Z,100281.11
2024-05-09T15:47:46.521Z,100282.69
2024-05-09T15:50:28.187Z,100284.42
2024-05-09T15:53:08.167Z,100288.86
2024-05-09T15:55:41.729Z,100284.36
2024-05-09T15:58:13.939Z,100287.66
2024-05-09T16:00:47.898Z,100283.96
2024-05-09T16:03:22.428Z,100279.78
2024-05-09T16:05:57.270Z,100278.48
2024-05-09T16:08:29.134Z,100280.65
2024-05-09T16:11:00.861Z,100283.52
2024-05-09T16:13:32.566Z,100278.91
2024-05-09T16:16:04.711Z,100279.42
2024-05-09T16:18:36.698Z,100279.45
2024-05-09T16:21:08.565Z,100276.57
2024-05-09T16:23:40.527Z,100273.39
2024-05-09T16:26:12.079Z,100271.55
2024-05-09T16:28:43.576Z,100273.40
2024-05-09T16:31:15.288Z,100275.50
2024-05-09T16:33:47.135Z,100280.09
2024-05-09T16:36:18.812Z,100278.23
2024-05-09T16:38:50.405Z,100279.63
2024-05-09T16:41:21.865Z,100278.21
2024-05-09T16:43:53.442Z,100275.70
2024-05-09T16:46:25.192Z,100275.28
2024-05-09T16:48:56.995Z,100280.11
2024-05-09T16:51:28.609Z,100278.42
2024-05-09T16:54:00.247Z,100281.34
2024-05-09T16:56:31.879Z,100277.08
2024-05-09T16:59:03.801Z,100276.65
2024-05-09T17:01:35.486Z,100277.36
2024-05-09T17:04:07.486Z,100280.72
2024-05-09T17:06:39.469Z,100280.63
2024-05-09T17:09:12.073Z,100282.42
2024-05-09T17:11:47.126Z,100286.55
2024-05-09T17:14:18.630Z,100287.45
2024-05-09T17:16:50.292Z,100291.33
2024-05-09T17:19:21.866Z,100288.40
2024-05-09T17:21:53.531Z,100284.24
2024-05-09T17:24:25.048Z,100281.67
2024-05-09T17:26:56.716Z,100281.52
2024-05-09T17:29:28.658Z,100281.73
2024-05-09T17:32:00.152Z,100286.12
2024-05-09T17:34:31.807Z,100281.05
2024-05-09T17:37:03.586Z,100278.80
2024-05-09T17:39:35.470Z,100281.61
2024-05-09T17:42:08.047Z,100279.88
2024-05-09T17:44:39.466Z,100279.89
2024-05-09T17:47:11.179Z,100277.27
2024-05-09T17:49:42.937Z,100277.64
2024-05-09T17:52:14.507Z,100281.47
2024-05-09T17:54:46.684Z,100285.64
2024-05-09T17:57:18.304Z,100288.23
2024-05-09T17:59:51.807Z,100287.88
2024-05-09T18:02:23.479Z,100291.84
2024-05-09T18:04:55.190Z,100294.08
2024-05-09T18:07:26.796Z,100296.31
2024-05-09T18:09:58.291Z,100298.90
2024-05-09T18:12:29.842Z,100299.92
2024-05-09T18:15:01.475Z,100302.83
2024-05-09T18:17:33.248Z,100304.17
2024-05-09T18:20:05.508Z,100304.30
2024-05-09T18:22:37.383Z,100307.02
2024-05-09T18:25:09.599Z,100311.98
2024-05-09T18:27:41.952Z,100309.10
2024-05-09T18:30:24.057Z,100310.70
2024-05-09T18:32:59.969Z,100316.39
2024-05-09T18:35:31.699Z,100325.19
2024-05-09T18:38:03.360Z,100328.59
2024-05-09T18:40:37.511Z,100329.72
2024-05-09T18:43:10.336Z,100332.92
2024-05-09T18:45:42.099Z,100337.37
2024-05-09T18:48:14.154Z,100337.17
2024-05-09T18:50:46.017Z,100338.88
2024-05-09T18:53:18.168Z,100339.38
2024-05-09T18:55:49.630Z,100344.84
2024-05-09T18:58:21.301Z,100347.55
2024-05-09T19:00:54.999Z,100348.68
2024-05-09T19:03:27.714Z,100354.35
2024-05-09T19:05:59.838Z,100358.16
2024-05-09T19:08:31.630Z,100359.34
2024-05-09T19:11:03.245Z,100362.41
2024-05-09T19:13:34.886Z,100366.54
2024-05-09T19:16:07.676Z,100364.93
2024-05-09T19:18:39.441Z,100361.85
2024-05-09T19:21:11.532Z,100370.40
2024-05-09T19:23:50.424Z,100368.71
2024-05-09T19:26:24.616Z,100369.10
2024-05-09T19:28:56.176Z,100374.02
2024-05-09T19:31:28.767Z,100377.07
2024-05-09T19:34:00.326Z,100379.27
2024-05-09T19:36:32.309Z,100382.28
2024-05-09T19:39:03.754Z,100379.77
2024-05-09T19:41:35.143Z,100380.73
2024-05-09T19:44:06.858Z,100379.04
2024-05-09T19:46:39.673Z,100381.48
2024-05-09T19:49:11.589Z,100382.46
2024-05-09T19:51:43.440Z,100380.08
2024-05-09T19:54:15.349Z,100385.84
2024-05-09T19:56:46.784Z,100388.48
2024-05-09T19:59:18.359Z,100384.88
2024-05-09T20:01:50.207Z,100381.52
2024-05-09T20:04:22.148Z,100384.03
2024-05-09T20:06:54.172Z,100386.42
2024-05-09T20:09:25.856Z,100391.05
2024-05-09T20:11:57.410Z,100389.91
2024-05-09T20:14:28.970Z,100389.23
2024-05-09T20:17:01.224Z,100392.27
2024-05-09T20:19:32.821Z,100391.50
2024-05-09T20:22:04.588Z,100394.83
2024-05-09T20:24:36.088Z,100394.08
2024-05-09T20:27:08.025Z,100393.07
2024-05-09T20:29:39.547Z,100394.37
2024-05-09T20:32:11.330Z,100395.19
2024-05-09T20:34:43.216Z,100396.02
2024-05-09T20:37:14.929Z,100392.86
2024-05-09T20:39:46.790Z,100393.92
2024-05-09T20:42:18.396Z,100396.27
2024-05-09T20:44:50.460Z,100396.35
2024-05-09T20:47:21.913Z,100393.43
2024-05-09T20:49:53.495Z,100393.27
2024-05-09T20:52:25.158Z,100397.23
2024-05-09T20:54:56.658Z,100398.33
2024-05-09T20:57:28.245Z,100403.48
2024-05-09T20:59:59.780Z,100397.21
2024-05-09T21:02:31.565Z,100395.36
2024-05-09T21:05:03.446Z,100393.88
2024-05-09T21:07:35.195Z,100393.20
2024-05-09T21:10:15.508Z,100396.56
2024-05-09T21:12:51.809Z,100396.36
2024-05-09T21:15:23.420Z,100394.59
2024-05-09T21:17:55.317Z,100396.69
2024-05-09T21:23:02.143Z,100389.54
2024-05-09T21:25:34.349Z,100384.70
2024-05-09T21:28:06.355Z,100388.63
2024-05-09T21:30:41.880Z,100383.85
2024-05-09T21:33:15.528Z,100386.37
2024-05-09T21:35:47.543Z,100389.42
2024-05-09T21:38:19.010Z,100392.29
2024-05-09T21:40:50.570Z,100394.62
2024-05-09T21:43:22.563Z,100391.91
2024-05-09T21:45:54.276Z,100394.67
2024-05-09T21:48:25.768Z,100394.84
2024-05-09T21:50:57.214Z,100394.28
2024-05-09T21:53:28.608Z,100396.33
2024-05-09T21:56:00.163Z,100400.30
2024-05-09T21:58:31.774Z,100398.37
2024-05-09T22:01:05.176Z,100399.50
2024-05-09T22:03:36.902Z,100401.41
2024-05-09T22:06:09.097Z,100406.05
2024-05-09T22:08:40.643Z,100406.58
2024-05-09T22:11:12.315Z,100409.02
2024-05-09T22:13:43.992Z,100405.30
2024-05-09T22:16:15.418Z,100403.20
2024-05-09T22:18:47.231Z,100394.94
2024-05-09T22:21:18.842Z,100398.23
2024-05-09T22:23:50.408Z,100400.05
2024-05-09T22:26:22.047Z,100401.79
2024-05-09T22:28:53.566Z,100402.48
2024-05-09T22:31:25.264Z,100399.79
2024-05-09T22:33:57.221Z,100403.10
2024-05-09T22:36:28.887Z,100403.64
2024-05-09T22:39:00.394Z,100403.29
2024-05-09T22:41:31.856Z,100396.42
2024-05-09T22:44:03.497Z,100393.83
2024-05-09T22:46:34.880Z,100396.40
2024-05-09T22:49:06.898Z,100399.10
2024-05-09T22:51:40.805Z,100404.46
2024-05-09T22:54:12.416Z,100411.70
2024-05-09T22:56:43.957Z,100408.05
2024-05-09T22:59:15.313Z,100404.16
2024-05-09T23:01:47.010Z,100404.41
2024-05-09T23:04:18.921Z,100403.33
2024-05-09T23:06:51.839Z,100399.60
2024-05-09T23:09:23.311Z,100399.38
2024-05-09T23:11:54.933Z,100397.86
2024-05-09T23:14:27.208Z,100400.39
2024-05-09T23:16:59.103Z,100402.64
2024-05-09T23:19:30.561Z,100405.90
2024-05-09T23:22:02.072Z,100403.04
2024-05-09T23:24:35.165Z,100405.05
2024-05-09T23:27:07.034Z,100403.15
2024-05-09T23:29:38.724Z,100401.22
2024-05-09T23:32:10.439Z,100397.80
2024-05-09T23:34:41.993Z,100396.15
2024-05-09T23:37:13.731Z,100398.42
2024-05-09T23:39:45.632Z,100391.74
2024-05-09T23:42:17.256Z,100390.37
2024-05-09T23:44:48.808Z,100390.34
2024-05-09T23:47:20.608Z,100384.10
2024-05-09T23:49:52.157Z,100382.39
2024-05-09T23:52:24.606Z,100382.64
2024-05-09T23:54:56.266Z,100379.80
2024-05-09T23:57:27.706Z,100380.81
